This is the latest recevied weather packets stored in our database for station/object K4MUW-4. If no packets are shown the sender has not sent any weather packets the latest 10 day(s).
| Time | Temp. | Humidity | Pressure | Rain* | Wind** | Luminosity | Snow |
|---|---|---|---|---|---|---|---|
| 1777865117 | 11.11° C | 55% | 1015 hPa | 0 mm | 0 m/s | - | - |
| 1777864816 | 11.11° C | 54% | 1015 hPa | 0 mm | 0 m/s | - | - |
| 1777864516 | 10.56° C | 54% | 1015 hPa | 0 mm | 0 m/s | - | - |
| 1777864216 | 10.56° C | 56% | 1015 hPa | 0 mm | 0 m/s | - | - |
| 1777863915 | 11.11° C | 57% | 1015 hPa | 0 mm | 1.34 m/s, 216° | - | - |
| 1777863615 | 11.67° C | 54% | 1015 hPa | 0 mm | 1.34 m/s, 216° | - | - |
| 1777863315 | 12.22° C | 50% | 1015 hPa | 0 mm | 0 m/s | - | - |
| 1777863014 | 12.22° C | 49% | 1015 hPa | 0 mm | 0 m/s | - | - |
| 1777862714 | 12.22° C | 49% | 1015 hPa | 0 mm | 0 m/s | - | - |
| 1777862413 | 12.22° C | 50% | 1015 hPa | 0 mm | 0 m/s | - | - |
| 1777862113 | 12.22° C | 49% | 1015 hPa | 0 mm | 0 m/s | - | - |
| 1777861812 | 12.22° C | 48% | 1015 hPa | 0 mm | 0 m/s | - | - |
| 1777861512 | 12.22° C | 49% | 1015 hPa | 0 mm | 0 m/s | - | - |
| 1777861212 | 12.22° C | 49% | 1015 hPa | 0 mm | 0 m/s | - | - |
| 1777860911 | 12.78° C | 47% | 1015 hPa | 0 mm | 0 m/s | - | - |
| 1777860611 | 12.78° C | 47% | 1015 hPa | 0 mm | 0 m/s | - | - |
| 1777860310 | 12.78° C | 47% | 1015 hPa | 0 mm | 0 m/s | - | - |
| 1777860010 | 13.33° C | 46% | 1015 hPa | 0 mm | 0 m/s | - | - |
| 1777859709 | 13.33° C | 46% | 1015 hPa | 0 mm | 0 m/s | - | - |
| 1777859409 | 13.33° C | 45% | 1015 hPa | 0 mm | 0 m/s | - | - |
| 1777859109 | 13.33° C | 45% | 1015 hPa | 0 mm | 0 m/s | - | - |
| 1777858808 | 13.33° C | 45% | 1015 hPa | 0 mm | 0 m/s | - | - |
| 1777858508 | 13.89° C | 45% | 1015 hPa | 0 mm | 0 m/s | - | - |
| 1777858208 | 13.89° C | 45% | 1014 hPa | 0 mm | 0 m/s | - | - |
| 1777857907 | 13.89° C | 45% | 1014 hPa | 0 mm | 0 m/s | - | - |
* Rain latest hour (hover to see other rain measurements)
** Current wind speed in m/s (hover to see current wind gust speed)